Time;durP1;ratioP1;P1;durP2;ratioP2;P2;SDS_P1;SDS_P2;PMS_P1;PMS_P2;Temp;Humidity;BMP_temperature;BMP_pressure;BME280_temperature;BME280_humidity;BME280_pressure;Samples;Min_cycle;Max_cycle;Signal;HPM_P1;HPM_P2
2021/04/15 00:00:20;;;;;;;12.77;7.40;;;;;;;;;;5053448;28;20558;-75
2021/04/15 00:02:46;;;;;;;9.68;7.90;;;;;;;;;;5050726;28;20182;-75
2021/04/15 00:05:13;;;;;;;8.40;7.57;;;;;;;;;;5049701;28;20546;-75
2021/04/15 00:07:39;;;;;;;8.45;7.55;;;;;;;;;;5049360;28;20456;-75
2021/04/15 00:10:11;;;;;;;9.37;8.47;;;;;;;;;;5051036;28;20532;-75
2021/04/15 00:12:38;;;;;;;7.47;6.60;;;;;;;;;;5050220;28;20447;-75
2021/04/15 00:15:07;;;;;;;12.48;8.38;;;;;;;;;;5050800;28;20181;-74
2021/04/15 00:17:33;;;;;;;7.97;7.20;;;;;;;;;;5051326;28;20193;-74
2021/04/15 00:19:59;;;;;;;13.20;6.77;;;;;;;;;;5052664;28;20230;-75
2021/04/15 00:22:25;;;;;;;10.87;8.20;;;;;;;;;;5052944;28;20548;-75
2021/04/15 00:24:51;;;;;;;10.70;8.10;;;;;;;;;;5054078;28;20432;-75
2021/04/15 00:27:17;;;;;;;12.37;7.93;;;;;;;;;;5053206;28;20455;-75
2021/04/15 00:29:43;;;;;;;8.98;7.75;;;;;;;;;;5067079;28;20435;-75
2021/04/15 00:32:10;;;;;;;8.07;7.28;;;;;;;;;;5054102;28;20185;-75
2021/04/15 00:34:35;;;;;;;10.50;8.95;;;;;;;;;;5053364;28;20181;-75
2021/04/15 00:37:01;;;;;;;8.83;7.97;;;;;;;;;;5054154;28;20698;-75
2021/04/15 00:39:27;;;;;;;8.43;6.80;;;;;;;;;;5053195;28;20437;-75
2021/04/15 00:41:53;;;;;;;8.47;7.67;;;;;;;;;;5052978;28;20877;-75
2021/04/15 00:44:19;;;;;;;8.82;8.05;;;;;;;;;;5054092;28;20757;-75
2021/04/15 00:46:54;;;;;;;12.80;9.17;;;;;;;;;;5052324;28;20198;-75
2021/04/15 00:49:31;;;;;;;12.65;8.50;;;;;;;;;;5049874;28;20486;-75
2021/04/15 00:52:02;;;;;;;9.70;8.25;;;;;;;;;;5047112;28;20177;-75
2021/04/15 00:54:28;;;;;;;9.55;8.63;;;;;;;;;;5052674;28;20208;-75
2021/04/15 00:56:54;;;;;;;10.33;8.63;;;;;;;;;;5056156;28;20298;-75
2021/04/15 00:59:20;;;;;;;9.27;8.37;;;;;;;;;;5054729;28;20530;-75
2021/04/15 01:01:46;;;;;;;9.68;8.02;;;;;;;;;;5052359;28;20890;-75
2021/04/15 01:04:12;;;;;;;9.87;8.27;;;;;;;;;;5052670;28;20181;-75
2021/04/15 01:06:38;;;;;;;12.25;9.02;;;;;;;;;;5053511;28;20973;-75
2021/04/15 01:09:04;;;;;;;8.47;7.63;;;;;;;;;;5052378;28;20186;-75
2021/04/15 01:11:43;;;;;;;9.50;8.18;;;;;;;;;;5053399;28;20787;-75
2021/04/15 01:14:23;;;;;;;8.73;7.63;;;;;;;;;;5052340;28;20250;-75
2021/04/15 01:16:54;;;;;;;13.75;9.50;;;;;;;;;;5046218;28;20291;-75
2021/04/15 01:19:26;;;;;;;10.00;8.95;;;;;;;;;;5052619;28;20570;-75
2021/04/15 01:22:16;;;;;;;9.10;8.20;;;;;;;;;;5053506;28;20233;-75
2021/04/15 01:24:48;;;;;;;10.23;9.05;;;;;;;;;;5052847;28;20170;-75
2021/04/15 01:27:26;;;;;;;11.27;8.02;;;;;;;;;;5051450;28;20212;-75
2021/04/15 01:29:56;;;;;;;9.80;8.93;;;;;;;;;;5043184;28;20676;-75
2021/04/15 01:32:27;;;;;;;9.65;8.65;;;;;;;;;;5051648;28;20660;-75
2021/04/15 01:34:59;;;;;;;11.40;9.73;;;;;;;;;;5053329;28;20188;-75
2021/04/15 01:37:25;;;;;;;9.10;8.20;;;;;;;;;;5052008;28;20580;-75
2021/04/15 01:39:56;;;;;;;9.63;8.30;;;;;;;;;;5053188;28;20199;-75
2021/04/15 01:42:27;;;;;;;14.40;9.48;;;;;;;;;;5051902;28;20986;-75
2021/04/15 01:44:55;;;;;;;9.98;9.05;;;;;;;;;;5053248;28;20541;-75
2021/04/15 01:47:24;;;;;;;14.35;10.23;;;;;;;;;;5050931;28;20232;-75
2021/04/15 01:49:52;;;;;;;10.57;9.10;;;;;;;;;;5050886;28;20216;-75
2021/04/15 01:52:18;;;;;;;10.85;8.73;;;;;;;;;;5052453;28;20209;-75
2021/04/15 01:54:51;;;;;;;14.10;10.35;;;;;;;;;;5052238;28;20216;-75
2021/04/15 01:57:20;;;;;;;12.20;11.00;;;;;;;;;;5050771;28;20279;-75
2021/04/15 01:59:49;;;;;;;12.32;10.80;;;;;;;;;;5057305;28;20652;-75
2021/04/15 02:02:18;;;;;;;12.27;10.60;;;;;;;;;;5050267;28;20241;-75
2021/04/15 02:04:49;;;;;;;12.52;9.90;;;;;;;;;;5052217;28;20173;-75
2021/04/15 02:07:17;;;;;;;10.95;9.85;;;;;;;;;;5052324;28;20562;-75
2021/04/15 02:09:44;;;;;;;10.88;9.77;;;;;;;;;;5052603;28;20224;-75
2021/04/15 02:12:13;;;;;;;12.25;11.05;;;;;;;;;;5051862;28;20264;-75
2021/04/15 02:14:41;;;;;;;10.77;9.60;;;;;;;;;;5051536;28;20456;-75
2021/04/15 02:17:09;;;;;;;15.40;10.23;;;;;;;;;;5051199;28;20216;-75
2021/04/15 02:19:38;;;;;;;11.70;10.60;;;;;;;;;;5051543;28;20192;-74
2021/04/15 02:22:13;;;;;;;9.07;8.07;;;;;;;;;;5052634;28;20224;-75
2021/04/15 02:24:49;;;;;;;11.23;9.30;;;;;;;;;;5051530;28;20648;-75
2021/04/15 02:27:18;;;;;;;13.82;10.75;;;;;;;;;;5032072;28;20207;-75
2021/04/15 02:29:48;;;;;;;10.48;9.48;;;;;;;;;;5058625;28;20190;-75
2021/04/15 02:32:34;;;;;;;11.65;9.50;;;;;;;;;;5050576;28;20182;-75
2021/04/15 02:35:02;;;;;;;11.15;9.90;;;;;;;;;;5050224;28;20189;-75
2021/04/15 02:37:38;;;;;;;10.27;9.35;;;;;;;;;;5050810;28;20216;-75
2021/04/15 02:40:07;;;;;;;11.18;9.57;;;;;;;;;;5051529;28;20185;-75
2021/04/15 02:42:35;;;;;;;9.27;8.38;;;;;;;;;;5050115;28;20205;-75
2021/04/15 02:45:17;;;;;;;10.43;9.20;;;;;;;;;;5050153;28;20177;-75
2021/04/15 02:47:44;;;;;;;10.02;9.02;;;;;;;;;;5051649;28;20664;-75
2021/04/15 02:50:12;;;;;;;11.55;9.98;;;;;;;;;;5050829;28;20181;-75
2021/04/15 02:52:40;;;;;;;9.70;8.70;;;;;;;;;;5050480;28;20185;-75
2021/04/15 02:55:09;;;;;;;11.60;10.40;;;;;;;;;;5051456;28;20590;-75
2021/04/15 02:57:55;;;;;;;14.38;10.05;;;;;;;;;;5052002;28;20761;-75
2021/04/15 03:00:33;;;;;;;10.57;8.77;;;;;;;;;;5049922;28;20178;-75
2021/04/15 03:03:02;;;;;;;10.43;9.43;;;;;;;;;;5051220;28;20260;-75
2021/04/15 03:05:29;;;;;;;9.82;9.02;;;;;;;;;;5049223;28;20182;-75
2021/04/15 03:07:58;;;;;;;9.82;8.93;;;;;;;;;;5051013;28;20541;-75
2021/04/15 03:10:26;;;;;;;10.05;8.90;;;;;;;;;;5051285;28;20180;-75
2021/04/15 03:12:55;;;;;;;9.50;8.60;;;;;;;;;;5048831;28;20208;-75
2021/04/15 03:15:26;;;;;;;10.57;9.50;;;;;;;;;;5050405;28;20283;-75
2021/04/15 03:17:56;;;;;;;9.82;8.75;;;;;;;;;;5051142;28;20216;-75
2021/04/15 03:20:26;;;;;;;11.65;9.90;;;;;;;;;;5049758;28;20232;-74
2021/04/15 03:22:56;;;;;;;11.07;9.88;;;;;;;;;;5041050;28;20175;-74
2021/04/15 03:25:23;;;;;;;11.80;10.57;;;;;;;;;;5047088;28;20227;-75
2021/04/15 03:28:01;;;;;;;11.05;9.95;;;;;;;;;;5051464;28;20205;-75
2021/04/15 03:30:32;;;;;;;11.75;10.57;;;;;;;;;;5058561;28;20298;-75
2021/04/15 03:32:58;;;;;;;11.40;10.20;;;;;;;;;;5050027;28;20178;-75
2021/04/15 03:35:24;;;;;;;12.50;11.20;;;;;;;;;;5051114;28;20189;-75
2021/04/15 03:37:59;;;;;;;10.40;9.43;;;;;;;;;;5051183;28;20915;-75
2021/04/15 03:40:27;;;;;;;10.43;8.85;;;;;;;;;;5050585;28;20419;-74
2021/04/15 03:42:55;;;;;;;9.65;8.70;;;;;;;;;;5050784;28;20206;-75
2021/04/15 03:45:43;;;;;;;9.07;8.10;;;;;;;;;;5051060;28;20667;-75
2021/04/15 03:48:11;;;;;;;10.15;9.25;;;;;;;;;;5050763;28;20692;-75
2021/04/15 03:50:45;;;;;;;11.82;10.60;;;;;;;;;;5050669;28;20180;-75
2021/04/15 03:53:13;;;;;;;12.15;11.00;;;;;;;;;;5052187;28;20177;-75
2021/04/15 03:55:42;;;;;;;12.48;11.02;;;;;;;;;;5055197;28;20181;-75
2021/04/15 03:58:09;;;;;;;12.18;10.90;;;;;;;;;;5053425;28;20239;-75
2021/04/15 04:00:43;;;;;;;9.60;8.55;;;;;;;;;;5056924;28;20202;-75
2021/04/15 04:03:11;;;;;;;12.38;11.13;;;;;;;;;;5054032;28;20193;-75
2021/04/15 04:05:41;;;;;;;11.35;10.23;;;;;;;;;;5055001;28;20170;-75
2021/04/15 04:08:12;;;;;;;14.48;10.63;;;;;;;;;;5035076;28;20194;-75
2021/04/15 04:10:39;;;;;;;12.32;11.13;;;;;;;;;;5046513;28;20260;-75
2021/04/15 04:13:24;;;;;;;13.13;10.77;;;;;;;;;;5054357;28;20181;-75
2021/04/15 04:15:56;;;;;;;12.18;10.85;;;;;;;;;;5045006;28;20197;-75
2021/04/15 04:18:27;;;;;;;12.52;11.30;;;;;;;;;;5054784;28;20713;-75
2021/04/15 04:20:55;;;;;;;12.35;10.50;;;;;;;;;;5054715;28;20220;-75
2021/04/15 04:23:27;;;;;;;13.45;11.45;;;;;;;;;;5053909;28;20188;-75
2021/04/15 04:25:57;;;;;;;12.98;11.07;;;;;;;;;;5053272;28;20177;-75
2021/04/15 04:28:27;;;;;;;12.80;10.98;;;;;;;;;;5061604;28;20182;-75
2021/04/15 04:30:53;;;;;;;13.75;12.38;;;;;;;;;;5060582;28;20190;-72
2021/04/15 04:33:20;;;;;;;11.97;10.97;;;;;;;;;;5053836;28;20188;-71
2021/04/15 04:35:48;;;;;;;13.15;11.65;;;;;;;;;;5054511;28;20455;-71
2021/04/15 04:38:17;;;;;;;12.48;11.27;;;;;;;;;;5053923;28;20769;-71
2021/04/15 04:40:44;;;;;;;13.70;12.40;;;;;;;;;;5053846;28;20223;-71
2021/04/15 04:43:15;;;;;;;14.27;11.90;;;;;;;;;;5053648;28;20223;-72
2021/04/15 04:45:42;;;;;;;15.15;13.13;;;;;;;;;;5054107;28;20212;-71
2021/04/15 04:48:13;;;;;;;14.32;12.88;;;;;;;;;;5053656;28;20228;-71
2021/04/15 04:50:52;;;;;;;13.40;12.18;;;;;;;;;;5056510;28;20180;-71
2021/04/15 04:53:37;;;;;;;14.65;13.13;;;;;;;;;;5067817;28;20182;-71
2021/04/15 04:56:09;;;;;;;15.43;13.35;;;;;;;;;;5053586;28;20269;-72
2021/04/15 04:58:36;;;;;;;14.98;12.50;;;;;;;;;;5087464;22;20233;-74
2021/04/15 05:01:02;;;;;;;14.00;12.40;;;;;;;;;;5067546;28;20209;-74
2021/04/15 05:03:29;;;;;;;13.05;11.70;;;;;;;;;;5053063;28;20178;-74
2021/04/15 05:06:06;;;;;;;14.55;13.15;;;;;;;;;;5055728;28;20226;-74
2021/04/15 05:08:45;;;;;;;16.50;13.43;;;;;;;;;;5071969;28;20196;-74
2021/04/15 05:11:11;;;;;;;16.08;14.20;;;;;;;;;;5041025;28;20251;-74
2021/04/15 05:13:37;;;;;;;15.57;13.98;;;;;;;;;;5052836;28;20264;-74
2021/04/15 05:16:04;;;;;;;15.95;14.10;;;;;;;;;;5053524;28;20303;-75
2021/04/15 05:18:30;;;;;;;16.90;15.40;;;;;;;;;;5053373;28;20245;-74
2021/04/15 05:21:09;;;;;;;20.17;18.02;;;;;;;;;;5053359;28;20274;-73
2021/04/15 05:23:41;;;;;;;20.52;15.25;;;;;;;;;;5051807;28;20557;-74
2021/04/15 05:26:10;;;;;;;16.75;15.25;;;;;;;;;;5049491;28;20227;-74
2021/04/15 05:28:36;;;;;;;19.15;17.25;;;;;;;;;;5052860;28;20285;-74
2021/04/15 05:31:04;;;;;;;20.45;18.27;;;;;;;;;;5054016;28;20182;-73
2021/04/15 05:33:31;;;;;;;18.63;16.73;;;;;;;;;;5061650;28;20190;-74
2021/04/15 05:36:06;;;;;;;19.67;16.55;;;;;;;;;;5059372;28;20597;-75
2021/04/15 05:38:36;;;;;;;19.00;17.00;;;;;;;;;;5046490;28;20662;-74
2021/04/15 05:41:03;;;;;;;21.05;17.00;;;;;;;;;;5052023;28;20217;-73
2021/04/15 05:43:34;;;;;;;22.38;17.67;;;;;;;;;;5050489;28;20253;-73
2021/04/15 05:46:11;;;;;;;20.60;17.88;;;;;;;;;;5060819;28;20279;-73
2021/04/15 05:48:38;;;;;;;18.40;15.60;;;;;;;;;;5052730;28;20189;-74
2021/04/15 05:51:07;;;;;;;18.50;16.80;;;;;;;;;;5036180;28;20190;-73
2021/04/15 05:53:38;;;;;;;20.35;17.58;;;;;;;;;;5034771;28;20193;-74
2021/04/15 05:56:10;;;;;;;19.98;18.05;;;;;;;;;;5052914;28;20205;-73
2021/04/15 05:58:55;;;;;;;18.67;16.50;;;;;;;;;;5052869;28;20248;-74
2021/04/15 06:01:32;;;;;;;22.63;20.23;;;;;;;;;;5042009;28;20210;-73
2021/04/15 06:03:58;;;;;;;22.25;20.05;;;;;;;;;;5049456;28;20186;-74
2021/04/15 06:06:32;;;;;;;22.33;19.10;;;;;;;;;;5056035;28;20544;-74
2021/04/15 06:08:59;;;;;;;19.80;17.85;;;;;;;;;;5059690;28;20409;-74
2021/04/15 06:11:34;;;;;;;21.55;19.27;;;;;;;;;;5053049;28;20600;-74
2021/04/15 06:14:03;;;;;;;22.17;19.88;;;;;;;;;;5052734;28;20182;-74
2021/04/15 06:16:39;;;;;;;22.20;20.10;;;;;;;;;;5052155;28;20181;-74
2021/04/15 06:19:10;;;;;;;23.75;19.88;;;;;;;;;;5049971;28;20272;-74
2021/04/15 06:21:47;;;;;;;23.55;20.67;;;;;;;;;;5051791;28;20576;-74
2021/04/15 06:24:23;;;;;;;24.52;19.85;;;;;;;;;;5050956;28;20548;-74
2021/04/15 06:26:53;;;;;;;21.13;19.02;;;;;;;;;;5033338;28;20229;-74
2021/04/15 06:29:40;;;;;;;21.42;18.05;;;;;;;;;;5050263;28;20269;-74
2021/04/15 06:32:07;;;;;;;23.35;19.08;;;;;;;;;;5045575;28;20220;-74
2021/04/15 06:34:33;;;;;;;23.20;20.98;;;;;;;;;;5050620;28;20189;-74
2021/04/15 06:37:02;;;;;;;21.17;18.95;;;;;;;;;;5057231;28;20244;-74
2021/04/15 06:39:31;;;;;;;21.35;19.05;;;;;;;;;;5052579;28;20181;-74
2021/04/15 06:42:09;;;;;;;21.30;19.15;;;;;;;;;;5052037;28;20201;-74
2021/04/15 06:44:50;;;;;;;21.67;18.92;;;;;;;;;;5051599;28;20206;-74
2021/04/15 06:47:35;;;;;;;22.30;19.67;;;;;;;;;;5051408;28;20205;-74
2021/04/15 06:50:07;;;;;;;28.92;20.25;;;;;;;;;;5051445;28;20207;-74
2021/04/15 06:52:58;;;;;;;21.83;19.70;;;;;;;;;;5051385;28;20181;-74
2021/04/15 06:55:30;;;;;;;21.98;19.75;;;;;;;;;;5049258;28;20197;-74
2021/04/15 06:58:08;;;;;;;21.05;18.85;;;;;;;;;;5051130;28;20217;-74
2021/04/15 07:00:46;;;;;;;22.55;20.35;;;;;;;;;;5050670;28;20599;-74
2021/04/15 07:03:31;;;;;;;21.80;19.50;;;;;;;;;;5048368;28;20177;-74
2021/04/15 07:06:00;;;;;;;22.40;20.17;;;;;;;;;;5054212;28;20177;-73
2021/04/15 07:08:29;;;;;;;19.05;17.00;;;;;;;;;;5058957;28;20197;-74
2021/04/15 07:11:03;;;;;;;20.08;18.05;;;;;;;;;;5051173;28;20189;-74
2021/04/15 07:13:47;;;;;;;19.75;16.38;;;;;;;;;;5056639;28;20252;-74
2021/04/15 07:16:33;;;;;;;18.13;16.23;;;;;;;;;;5050895;28;20227;-74
2021/04/15 07:19:24;;;;;;;19.17;17.25;;;;;;;;;;5039345;28;20181;-74
2021/04/15 07:21:56;;;;;;;15.60;14.10;;;;;;;;;;5047139;28;20227;-74
2021/04/15 07:24:25;;;;;;;18.73;16.17;;;;;;;;;;5051678;28;20173;-74
2021/04/15 07:27:00;;;;;;;18.52;15.45;;;;;;;;;;5051030;28;20576;-74
2021/04/15 07:29:44;;;;;;;18.45;15.13;;;;;;;;;;5051232;28;20215;-73
2021/04/15 07:32:29;;;;;;;15.57;14.07;;;;;;;;;;5051409;28;20185;-73
2021/04/15 07:34:58;;;;;;;15.68;13.80;;;;;;;;;;5051175;28;20192;-74
2021/04/15 07:37:36;;;;;;;15.85;14.25;;;;;;;;;;5055236;28;20202;-73
2021/04/15 07:40:05;;;;;;;20.23;13.15;;;;;;;;;;5049203;28;20279;-74
2021/04/15 07:42:37;;;;;;;20.60;13.32;;;;;;;;;;5056258;28;20216;-74
2021/04/15 07:45:07;;;;;;;14.75;13.35;;;;;;;;;;5047170;28;20637;-74
2021/04/15 07:47:39;;;;;;;17.67;14.90;;;;;;;;;;5052372;28;20200;-73
2021/04/15 07:50:05;;;;;;;22.45;18.02;;;;;;;;;;5049598;28;20264;-75
2021/04/15 07:52:50;;;;;;;20.43;15.67;;;;;;;;;;5049919;28;20276;-74
2021/04/15 07:55:19;;;;;;;18.83;15.88;;;;;;;;;;5047353;28;20792;-74
2021/04/15 07:58:03;;;;;;;16.35;14.68;;;;;;;;;;5050918;28;20240;-74
2021/04/15 08:00:48;;;;;;;14.38;12.90;;;;;;;;;;5051133;28;20216;-74
2021/04/15 08:03:32;;;;;;;14.13;12.85;;;;;;;;;;5050031;28;20188;-74
2021/04/15 08:05:59;;;;;;;15.57;14.02;;;;;;;;;;5053428;28;20192;-74
2021/04/15 08:08:34;;;;;;;15.45;12.15;;;;;;;;;;5051312;28;20196;-74
2021/04/15 08:11:12;;;;;;;21.83;13.02;;;;;;;;;;5049982;28;20193;-74
2021/04/15 08:13:52;;;;;;;14.63;12.05;;;;;;;;;;5051466;28;20235;-74
2021/04/15 08:16:33;;;;;;;15.00;12.35;;;;;;;;;;5031916;28;20174;-74
2021/04/15 08:19:18;;;;;;;12.75;10.50;;;;;;;;;;5039992;28;20189;-74
2021/04/15 08:21:47;;;;;;;12.02;10.93;;;;;;;;;;5049484;28;20355;-74
2021/04/15 08:24:16;;;;;;;12.60;10.55;;;;;;;;;;5051118;28;20165;-74
2021/04/15 08:26:55;;;;;;;10.75;9.05;;;;;;;;;;5051094;28;20174;-74
2021/04/15 08:29:36;;;;;;;16.67;10.80;;;;;;;;;;5035700;28;20173;-74
2021/04/15 08:32:20;;;;;;;10.45;9.48;;;;;;;;;;5051111;28;20214;-74
2021/04/15 08:34:49;;;;;;;12.25;9.60;;;;;;;;;;5051528;28;20250;-74
2021/04/15 08:37:34;;;;;;;15.68;10.07;;;;;;;;;;5056451;28;20859;-74
2021/04/15 08:40:00;;;;;;;12.68;9.70;;;;;;;;;;5050877;28;20286;-74
2021/04/15 08:42:29;;;;;;;12.20;8.45;;;;;;;;;;5054681;28;20203;-74
2021/04/15 08:44:55;;;;;;;10.88;9.02;;;;;;;;;;5054636;28;20210;-74
2021/04/15 08:47:39;;;;;;;10.37;9.40;;;;;;;;;;5054762;28;20251;-74
2021/04/15 08:50:16;;;;;;;14.30;10.18;;;;;;;;;;5048195;28;20430;-74
2021/04/15 08:52:47;;;;;;;12.48;9.05;;;;;;;;;;5052843;28;20187;-74
2021/04/15 08:55:23;;;;;;;8.35;7.30;;;;;;;;;;5049829;28;20185;-74
2021/04/15 08:57:56;;;;;;;7.70;5.97;;;;;;;;;;5054212;28;20267;-74
2021/04/15 09:00:26;;;;;;;6.88;6.18;;;;;;;;;;5054329;28;20264;-74
2021/04/15 09:02:52;;;;;;;7.13;6.53;;;;;;;;;;5053676;28;20656;-74
2021/04/15 09:05:18;;;;;;;10.90;5.80;;;;;;;;;;5061218;28;20184;-75
2021/04/15 09:07:59;;;;;;;6.90;6.30;;;;;;;;;;5053843;28;20562;-75
2021/04/15 09:10:28;;;;;;;6.85;6.15;;;;;;;;;;5051142;28;20419;-75
2021/04/15 09:13:00;;;;;;;8.73;5.47;;;;;;;;;;5053661;28;20262;-74
2021/04/15 09:15:26;;;;;;;5.30;4.00;;;;;;;;;;5053046;28;20536;-74
2021/04/15 09:17:56;;;;;;;4.57;3.40;;;;;;;;;;5052928;28;20207;-74
2021/04/15 09:20:31;;;;;;;4.68;4.38;;;;;;;;;;5051632;28;20515;-74
2021/04/15 09:23:07;;;;;;;3.50;3.30;;;;;;;;;;5051660;28;20238;-74
2021/04/15 09:25:40;;;;;;;3.95;3.47;;;;;;;;;;5053778;28;20520;-74
2021/04/15 09:28:10;;;;;;;5.70;4.70;;;;;;;;;;5044564;28;20249;-74
2021/04/15 09:30:39;;;;;;;7.45;4.90;;;;;;;;;;5049871;28;20184;-75
2021/04/15 09:33:05;;;;;;;4.90;4.45;;;;;;;;;;5035872;28;20173;-75
2021/04/15 09:35:31;;;;;;;5.90;5.40;;;;;;;;;;5061676;28;20563;-74
2021/04/15 09:37:57;;;;;;;5.70;5.13;;;;;;;;;;5054348;28;20525;-74
2021/04/15 09:40:33;;;;;;;8.23;5.60;;;;;;;;;;5053454;28;20446;-74
2021/04/15 09:43:19;;;;;;;6.03;5.53;;;;;;;;;;5053156;28;20926;-74
2021/04/15 09:45:50;;;;;;;5.90;5.38;;;;;;;;;;5053077;28;20200;-74
2021/04/15 09:48:34;;;;;;;6.30;5.65;;;;;;;;;;5052589;28;20582;-74
2021/04/15 09:51:12;;;;;;;7.20;6.43;;;;;;;;;;5048176;28;20264;-75
2021/04/15 09:53:52;;;;;;;7.28;6.68;;;;;;;;;;5052887;28;20179;-75
2021/04/15 09:56:37;;;;;;;6.00;4.40;;;;;;;;;;5053438;28;20174;-75
2021/04/15 09:59:06;;;;;;;11.48;5.47;;;;;;;;;;5052261;28;20190;-74
2021/04/15 10:01:39;;;;;;;5.93;5.32;;;;;;;;;;5052689;28;20253;-75
2021/04/15 10:04:11;;;;;;;8.52;5.07;;;;;;;;;;5048240;28;20181;-75
2021/04/15 10:06:39;;;;;;;5.57;4.68;;;;;;;;;;5049941;28;20192;-75
2021/04/15 10:09:12;;;;;;;4.78;3.75;;;;;;;;;;5052866;28;20596;-75
2021/04/15 10:11:52;;;;;;;4.03;3.45;;;;;;;;;;5050649;28;20629;-75
2021/04/15 10:14:30;;;;;;;7.70;4.28;;;;;;;;;;5036095;28;20181;-74
2021/04/15 10:17:05;;;;;;;4.00;3.60;;;;;;;;;;5051885;28;20232;-75
2021/04/15 10:19:37;;;;;;;3.90;3.45;;;;;;;;;;5050557;28;20241;-74
2021/04/15 10:22:06;;;;;;;5.65;3.35;;;;;;;;;;5050988;28;20206;-74
2021/04/15 10:24:47;;;;;;;4.80;3.63;;;;;;;;;;5047137;28;20256;-75
2021/04/15 10:27:32;;;;;;;3.00;2.80;;;;;;;;;;5034904;28;20195;-74
2021/04/15 10:30:16;;;;;;;7.10;3.15;;;;;;;;;;5052674;28;20178;-74
2021/04/15 10:32:52;;;;;;;3.00;2.60;;;;;;;;;;5050561;28;20268;-75
2021/04/15 10:35:21;;;;;;;3.88;3.13;;;;;;;;;;5048908;28;20270;-74
2021/04/15 10:38:06;;;;;;;3.22;2.92;;;;;;;;;;5050658;28;20208;-74
2021/04/15 10:40:34;;;;;;;4.47;3.30;;;;;;;;;;5050457;28;20617;-75
2021/04/15 10:43:15;;;;;;;4.35;3.95;;;;;;;;;;5061920;28;20178;-74
2021/04/15 10:45:50;;;;;;;3.92;3.10;;;;;;;;;;5056808;28;20179;-74
2021/04/15 10:48:42;;;;;;;2.87;2.70;;;;;;;;;;5051727;28;20199;-75
2021/04/15 10:51:12;;;;;;;3.30;2.80;;;;;;;;;;5045040;28;21013;-75
2021/04/15 10:53:43;;;;;;;4.07;3.53;;;;;;;;;;5050793;28;20271;-75
2021/04/15 10:56:13;;;;;;;2.75;2.45;;;;;;;;;;5050251;28;20193;-74
2021/04/15 10:58:38;;;;;;;3.35;3.10;;;;;;;;;;5072206;22;20223;-71
2021/04/15 11:01:23;;;;;;;4.37;3.20;;;;;;;;;;5045096;28;20659;-71
2021/04/15 11:03:50;;;;;;;3.25;3.05;;;;;;;;;;5044756;28;20453;-71
2021/04/15 11:06:34;;;;;;;3.20;2.90;;;;;;;;;;5034020;28;20182;-71
2021/04/15 11:09:19;;;;;;;3.60;3.30;;;;;;;;;;5037842;28;20218;-71
2021/04/15 11:11:54;;;;;;;3.50;3.20;;;;;;;;;;5029585;28;20203;-71
2021/04/15 11:14:20;;;;;;;4.43;3.70;;;;;;;;;;5028828;28;20287;-71
2021/04/15 11:16:50;;;;;;;4.53;3.07;;;;;;;;;;5032060;28;20402;-72
2021/04/15 11:19:16;;;;;;;5.67;3.30;;;;;;;;;;5029706;28;20509;-72
2021/04/15 11:21:44;;;;;;;3.40;3.10;;;;;;;;;;5029105;28;20467;-72
2021/04/15 11:24:27;;;;;;;3.33;3.13;;;;;;;;;;5031622;28;20397;-72
2021/04/15 11:26:55;;;;;;;3.67;3.20;;;;;;;;;;5031853;28;20507;-72
2021/04/15 11:29:30;;;;;;;2.63;2.50;;;;;;;;;;5034705;28;20429;-72
2021/04/15 11:31:56;;;;;;;2.63;2.53;;;;;;;;;;5032994;28;20416;-72
2021/04/15 11:34:24;;;;;;;4.40;2.90;;;;;;;;;;5029445;28;21059;-72
2021/04/15 11:37:10;;;;;;;2.73;2.63;;;;;;;;;;5035269;28;20440;-72
2021/04/15 11:39:37;;;;;;;3.20;2.80;;;;;;;;;;5032625;28;20445;-72
2021/04/15 11:42:08;;;;;;;2.60;2.40;;;;;;;;;;5029517;28;20835;-72
2021/04/15 11:44:40;;;;;;;3.30;3.10;;;;;;;;;;5028763;28;20444;-72
2021/04/15 11:47:23;;;;;;;3.13;2.83;;;;;;;;;;5021461;28;20420;-72
2021/04/15 11:49:50;;;;;;;2.63;2.43;;;;;;;;;;5026188;28;20536;-73
2021/04/15 11:52:19;;;;;;;2.33;2.13;;;;;;;;;;5030199;28;20443;-73
2021/04/15 11:54:45;;;;;;;2.63;2.30;;;;;;;;;;5030825;28;20431;-73
2021/04/15 11:57:21;;;;;;;3.23;2.33;;;;;;;;;;5031740;28;20938;-71
2021/04/15 12:00:08;;;;;;;2.37;2.17;;;;;;;;;;5038866;28;20503;-70
2021/04/15 12:02:34;;;;;;;5.90;2.13;;;;;;;;;;5010703;28;20578;-70
2021/04/15 12:05:18;;;;;;;1.97;1.83;;;;;;;;;;5030785;28;20455;-70
2021/04/15 12:08:02;;;;;;;2.60;2.40;;;;;;;;;;5030507;28;20448;-70
2021/04/15 12:10:31;;;;;;;2.07;1.70;;;;;;;;;;5027076;28;20488;-70
2021/04/15 12:13:00;;;;;;;1.83;1.70;;;;;;;;;;5040475;28;20426;-70
2021/04/15 12:15:30;;;;;;;2.73;2.53;;;;;;;;;;5040900;28;20428;-70
2021/04/15 12:17:58;;;;;;;3.90;2.87;;;;;;;;;;5016691;28;20441;-70
2021/04/15 12:20:36;;;;;;;5.57;5.00;;;;;;;;;;5034179;28;20482;-68
2021/04/15 12:23:07;;;;;;;4.70;3.40;;;;;;;;;;5033711;28;20451;-70
2021/04/15 12:25:39;;;;;;;3.63;3.23;;;;;;;;;;5035021;28;20975;-70
2021/04/15 12:28:14;;;;;;;2.87;2.67;;;;;;;;;;5026021;28;20408;-70
2021/04/15 12:30:41;;;;;;;3.87;3.30;;;;;;;;;;5049808;28;20436;-69
2021/04/15 12:33:12;;;;;;;4.73;4.33;;;;;;;;;;5052629;28;20405;-70
2021/04/15 12:35:42;;;;;;;3.50;3.20;;;;;;;;;;5026121;28;20488;-69
2021/04/15 12:38:26;;;;;;;4.43;4.03;;;;;;;;;;5032755;28;20429;-69
2021/04/15 12:40:56;;;;;;;3.23;3.03;;;;;;;;;;5033614;28;20857;-69
2021/04/15 12:43:27;;;;;;;3.73;3.27;;;;;;;;;;5046913;28;20416;-69
2021/04/15 12:46:01;;;;;;;3.00;2.80;;;;;;;;;;5029919;28;20432;-69
2021/04/15 12:48:32;;;;;;;5.00;3.63;;;;;;;;;;5034301;28;20785;-69
2021/04/15 12:50:59;;;;;;;4.33;3.70;;;;;;;;;;5033023;28;20437;-69
2021/04/15 12:53:25;;;;;;;4.53;3.50;;;;;;;;;;5038725;28;20765;-69
2021/04/15 12:55:51;;;;;;;4.13;3.70;;;;;;;;;;5033947;28;20417;-69
2021/04/15 12:58:19;;;;;;;3.50;3.30;;;;;;;;;;5033849;28;20474;-69
2021/04/15 13:00:50;;;;;;;4.73;3.40;;;;;;;;;;5048198;28;20412;-70
2021/04/15 13:03:21;;;;;;;4.10;3.00;;;;;;;;;;5045034;28;20442;-69
2021/04/15 13:05:50;;;;;;;3.73;3.33;;;;;;;;;;5031702;28;20433;-70
2021/04/15 13:08:25;;;;;;;3.53;2.90;;;;;;;;;;5032759;28;20430;-69
2021/04/15 13:10:51;;;;;;;3.40;3.10;;;;;;;;;;5027808;28;20476;-70
2021/04/15 13:13:34;;;;;;;4.30;3.00;;;;;;;;;;5045723;28;20426;-70
2021/04/15 13:16:00;;;;;;;6.10;3.30;;;;;;;;;;5036858;28;20416;-69
2021/04/15 13:18:41;;;;;;;3.43;3.23;;;;;;;;;;5031932;28;20504;-70
2021/04/15 13:21:10;;;;;;;6.50;3.50;;;;;;;;;;5026742;28;20499;-70
2021/04/15 13:23:37;;;;;;;3.20;3.03;;;;;;;;;;5033512;28;20425;-70
2021/04/15 13:26:03;;;;;;;4.10;3.80;;;;;;;;;;5033792;28;20465;-70
2021/04/15 13:28:47;;;;;;;5.80;3.70;;;;;;;;;;5034141;28;20488;-70
2021/04/15 13:31:32;;;;;;;3.93;3.63;;;;;;;;;;5045423;28;20446;-70
2021/04/15 13:34:01;;;;;;;4.30;3.90;;;;;;;;;;5037188;28;20963;-70
2021/04/15 13:36:28;;;;;;;3.50;3.20;;;;;;;;;;5031659;28;20217;-69
2021/04/15 13:38:56;;;;;;;3.77;3.47;;;;;;;;;;5033387;28;20515;-69
2021/04/15 13:41:25;;;;;;;2.80;2.60;;;;;;;;;;5030928;28;20819;-69
2021/04/15 13:43:58;;;;;;;5.57;3.57;;;;;;;;;;5031140;28;20833;-69
2021/04/15 13:46:25;;;;;;;4.33;3.93;;;;;;;;;;5033522;28;20421;-69
2021/04/15 13:48:59;;;;;;;3.57;3.37;;;;;;;;;;5032531;28;20455;-69
2021/04/15 13:51:26;;;;;;;3.80;3.50;;;;;;;;;;5031493;28;20470;-70
2021/04/15 13:53:57;;;;;;;3.37;3.13;;;;;;;;;;5032571;28;20475;-69
2021/04/15 13:56:35;;;;;;;8.90;3.37;;;;;;;;;;5033112;28;20411;-69
2021/04/15 13:59:01;;;;;;;3.67;3.40;;;;;;;;;;5034046;28;20471;-69
2021/04/15 14:01:41;;;;;;;3.80;3.40;;;;;;;;;;5047435;28;20441;-69
2021/04/15 14:04:07;;;;;;;4.20;3.43;;;;;;;;;;5044457;28;20449;-69
2021/04/15 14:06:33;;;;;;;3.40;3.20;;;;;;;;;;5031076;28;20932;-70
2021/04/15 14:09:18;;;;;;;3.27;3.07;;;;;;;;;;5032655;28;20449;-69
2021/04/15 14:11:49;;;;;;;3.67;3.30;;;;;;;;;;5033874;28;20410;-70
2021/04/15 14:14:21;;;;;;;3.50;3.00;;;;;;;;;;5050654;28;20853;-70
2021/04/15 14:16:50;;;;;;;6.90;3.50;;;;;;;;;;5029561;28;20437;-70
2021/04/15 14:19:24;;;;;;;6.73;3.30;;;;;;;;;;5031898;28;20905;-70
2021/04/15 14:21:51;;;;;;;3.67;3.37;;;;;;;;;;5034155;28;20467;-69
2021/04/15 14:24:38;;;;;;;4.13;3.83;;;;;;;;;;5032566;28;20409;-70
2021/04/15 14:27:09;;;;;;;3.60;3.30;;;;;;;;;;5032407;28;20425;-70
2021/04/15 14:29:37;;;;;;;5.60;3.27;;;;;;;;;;5033204;28;20797;-70
2021/04/15 14:32:09;;;;;;;3.90;3.60;;;;;;;;;;5038321;28;20447;-70
2021/04/15 14:34:39;;;;;;;3.80;3.40;;;;;;;;;;5031487;28;20419;-70
2021/04/15 14:37:07;;;;;;;4.57;2.77;;;;;;;;;;5032847;28;20459;-70
2021/04/15 14:39:36;;;;;;;3.90;2.80;;;;;;;;;;5031120;28;20540;-70
2021/04/15 14:42:04;;;;;;;5.10;3.10;;;;;;;;;;5033361;28;20471;-70
2021/04/15 14:44:30;;;;;;;2.70;2.37;;;;;;;;;;5047237;28;20425;-70
2021/04/15 14:46:57;;;;;;;2.90;2.70;;;;;;;;;;5032726;28;20419;-69
2021/04/15 14:49:26;;;;;;;4.63;3.57;;;;;;;;;;5030869;28;20479;-70
2021/04/15 14:52:05;;;;;;;3.10;2.90;;;;;;;;;;5031073;28;20438;-70
2021/04/15 14:54:32;;;;;;;3.90;3.60;;;;;;;;;;5031627;28;20504;-71
2021/04/15 14:56:59;;;;;;;4.50;4.10;;;;;;;;;;5031871;28;20434;-71
2021/04/15 14:59:28;;;;;;;4.80;4.40;;;;;;;;;;5033050;28;20472;-71